Time;durP1;ratioP1;P1;durP2;ratioP2;P2;SDS_P1;SDS_P2;PMS_P1;PMS_P2;Temp;Humidity;BMP_temperature;BMP_pressure;BME280_temperature;BME280_humidity;BME280_pressure;Samples;Min_cycle;Max_cycle;Signal;HPM_P1;HPM_P2
2022/05/10 00:01:46;;;;;;;22.30;12.13;;;17.90;1.00;;;;;;5113206;28;20167;-71
2022/05/10 00:04:13;;;;;;;26.97;12.83;;;17.90;94.10;;;;;;5113639;28;20530;-72
2022/05/10 00:06:42;;;;;;;18.73;13.27;;;17.90;1.00;;;;;;5113742;28;20170;-72
2022/05/10 00:09:09;;;;;;;18.47;10.90;;;17.90;23.20;;;;;;5113670;28;20171;-72
2022/05/10 00:11:35;;;;;;;21.93;10.03;;;17.80;99.90;;;;;;5113741;28;20638;-72
2022/05/10 00:14:01;;;;;;;19.63;10.73;;;17.40;1.00;;;;;;5113345;28;20178;-72
2022/05/10 00:16:27;;;;;;;17.50;10.07;;;17.20;1.00;;;;;;5112965;28;20634;-72
2022/05/10 00:18:53;;;;;;;19.30;10.00;;;17.10;1.00;;;;;;5113630;28;20259;-72
2022/05/10 00:21:24;;;;;;;14.83;8.50;;;16.90;1.00;;;;;;5113625;28;20254;-72
2022/05/10 00:23:50;;;;;;;18.23;9.50;;;16.70;1.00;;;;;;5113362;28;20256;-72
2022/05/10 00:26:17;;;;;;;19.40;9.50;;;16.60;1.00;;;;;;5113458;28;20160;-72
2022/05/10 00:28:42;;;;;;;14.20;9.63;;;16.60;1.00;;;;;;5113557;28;20626;-72
2022/05/10 00:31:09;;;;;;;15.60;9.50;;;16.50;1.00;;;;;;5113152;28;20182;-72
2022/05/10 00:33:36;;;;;;;14.03;9.57;;;16.50;1.00;;;;;;5113446;28;20246;-72
2022/05/10 00:36:02;;;;;;;14.20;9.23;;;16.50;1.00;;;;;;5113642;28;20630;-72
2022/05/10 00:38:39;;;;;;;20.07;9.97;;;16.60;1.00;;;;;;5113545;28;20205;-72
2022/05/10 00:41:23;;;;;;;19.07;10.70;;;16.70;1.00;;;;;;5113468;28;20163;-72
2022/05/10 00:43:55;;;;;;;14.17;9.10;;;16.80;1.00;;;;;;5113425;28;20213;-72
2022/05/10 00:46:34;;;;;;;18.23;9.70;;;16.80;1.00;;;;;;5113041;28;20634;-72
2022/05/10 00:49:16;;;;;;;15.77;9.77;;;16.90;1.00;;;;;;5113415;28;20199;-72
2022/05/10 00:51:50;;;;;;;16.70;9.40;;;17.00;1.00;;;;;;5113300;28;20191;-72
2022/05/10 00:54:36;;;;;;;16.83;9.20;;;17.00;1.00;;;;;;5113135;28;20183;-72
2022/05/10 00:57:05;;;;;;;20.57;9.50;;;17.00;1.00;;;;;;5113254;28;20171;-72
2022/05/10 00:59:43;;;;;;;15.73;10.10;;;17.00;1.00;;;;;;5112577;28;20329;-72
2022/05/10 01:02:25;;;;;;;18.47;10.50;;;16.80;1.00;;;;;;5116151;28;20171;-73
2022/05/10 01:04:55;;;;;;;16.43;10.07;;;16.90;1.00;;;;;;5117106;28;20171;-72
2022/05/10 01:07:33;;;;;;;15.13;10.27;;;16.90;1.00;;;;;;5117111;28;20550;-72
2022/05/10 01:10:13;;;;;;;20.73;10.83;;;16.90;1.00;;;;;;5117038;28;20178;-72
2022/05/10 01:13:02;;;;;;;17.20;10.70;;;16.80;1.00;;;;;;5117012;28;20194;-72
2022/05/10 01:15:27;;;;;;;16.87;10.67;;;16.70;1.00;;;;;;5115910;28;20186;-72
2022/05/10 01:17:57;;;;;;;17.40;10.13;;;16.70;1.00;;;;;;5116790;28;20167;-72
2022/05/10 01:20:50;;;;;;;19.93;11.23;;;16.70;1.00;;;;;;5116829;28;20220;-72
2022/05/10 01:23:54;;;;;;;19.33;11.10;;;16.80;1.00;;;;;;5115882;28;20215;-72
2022/05/10 01:26:48;;;;;;;19.57;10.97;;;16.80;1.00;;;;;;5014179;28;20170;-72
2022/05/10 01:29:29;;;;;;;21.77;11.10;;;16.80;1.00;;;;;;5107650;28;20214;-72
2022/05/10 01:34:49;;;;;;;19.87;11.00;;;16.90;1.00;;;;;;5116781;28;20175;-72
2022/05/10 01:37:19;;;;;;;19.20;11.13;;;16.90;1.00;;;;;;5116325;28;20194;-73
2022/05/10 01:40:08;;;;;;;16.13;10.70;;;16.80;1.00;;;;;;5116110;28;20199;-72
2022/05/10 01:42:42;;;;;;;16.63;10.70;;;16.80;1.00;;;;;;5115918;28;20630;-72
2022/05/10 01:45:34;;;;;;;16.87;10.90;;;16.70;1.00;;;;;;5116429;28;20177;-71
2022/05/10 01:48:01;;;;;;;20.00;10.70;;;16.70;1.00;;;;;;5116018;28;20175;-71
2022/05/10 01:50:45;;;;;;;17.00;10.40;;;16.60;1.00;;;;;;5115976;28;20167;-72
2022/05/10 01:53:20;;;;;;;17.63;10.47;;;16.60;1.00;;;;;;5116042;28;20175;-72
2022/05/10 01:55:49;;;;;;;15.43;9.70;;;16.60;1.00;;;;;;5116047;28;20223;-72
2022/05/10 01:58:19;;;;;;;16.43;10.47;;;16.70;1.00;;;;;;5115699;28;20690;-72
2022/05/10 02:00:59;;;;;;;20.17;10.53;;;16.70;1.00;;;;;;5115634;28;20219;-72
2022/05/10 02:03:42;;;;;;;16.83;10.87;;;16.80;1.00;;;;;;5115962;28;20718;-73
2022/05/10 02:06:29;;;;;;;20.90;11.03;;;16.90;1.00;;;;;;5115871;28;20170;-71
2022/05/10 02:09:19;;;;;;;21.90;10.93;;;16.90;99.90;;;;;;5115988;28;20201;-73
2022/05/10 02:12:04;;;;;;;20.93;10.53;;;17.00;99.90;;;;;;5115485;28;20162;-72
2022/05/10 02:14:32;;;;;;;20.80;11.00;;;17.10;99.90;;;;;;5115478;28;20179;-71
2022/05/10 02:17:04;;;;;;;16.40;10.93;;;17.20;1.00;;;;;;5115651;28;20653;-72
2022/05/10 02:19:39;;;;;;;18.27;11.33;;;17.20;1.00;;;;;;5115502;28;20735;-72
2022/05/10 02:22:13;;;;;;;15.23;10.53;;;17.30;1.00;;;;;;5115972;28;20167;-72
2022/05/10 02:24:43;;;;;;;18.27;10.17;;;17.40;1.00;;;;;;5115528;28;20646;-72
2022/05/10 02:27:22;;;;;;;18.67;10.13;;;17.50;99.90;;;;;;5115182;28;20626;-72
2022/05/10 02:29:53;;;;;;;18.53;9.63;;;17.60;99.90;;;;;;5115302;28;20178;-72
2022/05/10 02:35:16;;;;;;;17.57;10.33;;;17.60;1.00;;;;;;5115671;28;20225;-72
2022/05/10 02:37:42;;;;;;;16.70;10.17;;;17.60;99.90;;;;;;5115288;28;20225;-72
2022/05/10 02:40:09;;;;;;;14.23;9.40;;;17.60;1.00;;;;;;5115133;28;20673;-72
2022/05/10 02:42:35;;;;;;;13.23;9.73;;;17.60;99.90;;;;;;5114656;28;20250;-72
2022/05/10 02:45:04;;;;;;;13.17;8.93;;;17.60;99.90;;;;;;5115084;28;20171;-72
2022/05/10 02:47:41;;;;;;;14.33;8.90;;;17.50;99.90;;;;;;5115147;28;20179;-72
2022/05/10 02:50:23;;;;;;;14.47;8.63;;;17.50;1.00;;;;;;5114707;28;20179;-72
2022/05/10 02:52:50;;;;;;;12.97;8.57;;;17.50;99.90;;;;;;5114718;28;20198;-72
2022/05/10 02:55:38;;;;;;;14.97;8.77;;;17.50;99.90;;;;;;5114596;28;20199;-72
2022/05/10 02:58:15;;;;;;;11.67;7.97;;;17.60;99.90;;;;;;5114613;28;20163;-72
2022/05/10 03:00:41;;;;;;;12.30;8.53;;;17.50;1.00;;;;;;5114728;28;20222;-72
2022/05/10 03:03:15;;;;;;;12.37;9.63;;;17.50;99.90;;;;;;5114637;28;20178;-72
2022/05/10 03:05:41;;;;;;;12.93;9.60;;;17.50;1.00;;;;;;5114763;28;20168;-72
2022/05/10 03:08:07;;;;;;;17.83;10.20;;;17.50;1.00;;;;;;5114752;28;20171;-73
2022/05/10 03:10:32;;;;;;;15.83;10.17;;;17.40;1.00;;;;;;5114617;28;20634;-72
2022/05/10 03:12:59;;;;;;;18.03;10.23;;;17.30;1.00;;;;;;5114273;28;20224;-72
2022/05/10 03:15:25;;;;;;;16.77;10.53;;;17.30;1.00;;;;;;5114920;28;20163;-72
2022/05/10 03:17:51;;;;;;;17.20;10.73;;;17.30;1.00;;;;;;5114227;28;20174;-72
2022/05/10 03:20:17;;;;;;;15.90;11.17;;;17.20;1.00;;;;;;5114287;28;20176;-74
2022/05/10 03:22:43;;;;;;;16.10;11.20;;;17.20;1.00;;;;;;5113854;28;20256;-72
2022/05/10 03:25:09;;;;;;;13.77;10.23;;;17.20;1.00;;;;;;5112969;28;20687;-73
2022/05/10 03:27:35;;;;;;;12.07;10.03;;;17.30;1.00;;;;;;5114507;28;20170;-72
2022/05/10 03:30:03;;;;;;;13.60;10.73;;;17.40;1.00;;;;;;5113997;28;20251;-73
2022/05/10 03:32:29;;;;;;;17.67;10.70;;;17.40;1.00;;;;;;5114195;28;20183;-73
2022/05/10 03:34:55;;;;;;;17.90;10.60;;;17.40;1.00;;;;;;5113778;28;20179;-73
2022/05/10 03:37:24;;;;;;;15.47;10.33;;;17.40;1.00;;;;;;5113832;28;20626;-73
2022/05/10 03:39:50;;;;;;;17.10;10.70;;;17.30;1.00;;;;;;5113493;28;20682;-72
2022/05/10 03:42:16;;;;;;;18.10;11.27;;;17.30;1.00;;;;;;5113152;28;20304;-72
2022/05/10 03:44:42;;;;;;;21.17;11.13;;;17.30;1.00;;;;;;5113807;28;20171;-72
2022/05/10 03:47:09;;;;;;;18.77;11.37;;;17.30;1.00;;;;;;5113535;28;20231;-72
2022/05/10 03:49:35;;;;;;;19.60;10.67;;;17.30;1.00;;;;;;5113318;28;20159;-72
2022/05/10 03:52:02;;;;;;;27.53;11.87;;;17.30;1.00;;;;;;5113497;28;20615;-72
2022/05/10 03:54:27;;;;;;;19.23;10.87;;;17.30;1.00;;;;;;5112585;28;20656;-72
2022/05/10 03:56:53;;;;;;;16.30;10.90;;;17.30;1.00;;;;;;5113437;28;20167;-72
2022/05/10 03:59:20;;;;;;;18.10;10.60;;;17.40;1.00;;;;;;5113010;28;20219;-72
2022/05/10 04:01:46;;;;;;;34.77;13.87;;;17.50;1.00;;;;;;5113566;28;20669;-72
2022/05/10 04:04:12;;;;;;;14.63;10.07;;;17.60;1.00;;;;;;5112971;28;20175;-72
2022/05/10 04:06:38;;;;;;;17.73;10.63;;;17.60;1.00;;;;;;5113149;28;20544;-72
2022/05/10 04:09:05;;;;;;;19.20;11.03;;;17.60;1.00;;;;;;5113206;28;20192;-72
2022/05/10 04:11:30;;;;;;;19.53;10.50;;;17.60;1.00;;;;;;5112606;28;20180;-71
2022/05/10 04:13:56;;;;;;;14.83;10.33;;;17.60;1.00;;;;;;5112898;28;20621;-71
2022/05/10 04:16:22;;;;;;;19.43;10.17;;;17.70;1.00;;;;;;5113325;28;20175;-73
2022/05/10 04:18:48;;;;;;;21.13;10.50;;;17.70;1.00;;;;;;5113448;28;20294;-73
2022/05/10 04:21:14;;;;;;;20.83;10.80;;;17.70;1.00;;;;;;5113192;28;20690;-73
2022/05/10 04:23:39;;;;;;;14.53;9.37;;;17.80;1.00;;;;;;5112278;28;20191;-71
2022/05/10 04:26:08;;;;;;;17.33;9.70;;;17.90;99.90;;;;;;5112686;28;20645;-71
2022/05/10 04:28:36;;;;;;;11.93;8.63;;;17.90;99.90;;;;;;5113115;28;20264;-71
2022/05/10 04:31:03;;;;;;;23.10;9.83;;;18.00;99.50;;;;;;5112991;28;20174;-71
2022/05/10 04:33:28;;;;;;;14.50;9.23;;;18.10;1.00;;;;;;5112756;28;20233;-72
2022/05/10 04:35:54;;;;;;;19.87;9.27;;;18.10;99.90;;;;;;5113928;28;20175;-72
2022/05/10 04:38:20;;;;;;;17.57;8.60;;;18.20;44.30;;;;;;5116560;28;20291;-72
2022/05/10 04:43:33;;;;;;;16.83;8.47;;;18.30;1.00;;;;;;5116880;28;20537;-71
2022/05/10 04:45:59;;;;;;;27.80;10.80;;;18.40;1.00;;;;;;5116796;28;20159;-71
2022/05/10 04:48:24;;;;;;;16.40;9.53;;;18.60;48.10;;;;;;5117125;28;20251;-70
2022/05/10 04:50:50;;;;;;;14.90;9.13;;;18.70;7.00;;;;;;5116282;28;20615;-72
2022/05/10 04:53:16;;;;;;;18.20;9.50;;;18.90;1.00;;;;;;5115563;28;20342;-72
2022/05/10 04:55:42;;;;;;;13.17;9.23;;;19.00;99.90;;;;;;5116199;28;20258;-72
2022/05/10 04:58:07;;;;;;;15.45;10.07;;;19.20;82.70;;;;;;5116588;28;20502;-72
2022/05/10 05:00:33;;;;;;;21.75;9.00;;;19.50;1.00;;;;;;5115971;28;20226;-73
2022/05/10 05:02:58;;;;;;;22.52;10.18;;;19.80;99.90;;;;;;5098046;28;20207;-74
2022/05/10 05:05:24;;;;;;;13.63;9.07;;;20.10;66.10;;;;;;5115996;28;20167;-73
2022/05/10 05:07:50;;;;;;;11.23;8.77;;;20.50;1.00;;;;;;5116126;28;20168;-73
2022/05/10 05:10:15;;;;;;;17.88;10.00;;;20.80;70.00;;;;;;5115471;28;20348;-74
2022/05/10 05:12:41;;;;;;;15.27;8.65;;;21.10;1.00;;;;;;5115836;28;20171;-75
2022/05/10 05:15:10;;;;;;;18.25;9.13;;;21.80;99.90;;;;;;5115782;28;20178;-74
2022/05/10 05:17:36;;;;;;;19.85;9.25;;;22.40;1.00;;;;;;5116138;28;20171;-74
2022/05/10 05:20:01;;;;;;;15.40;9.32;;;22.80;1.00;;;;;;5115417;28;20247;-75
2022/05/10 05:22:28;;;;;;;12.30;8.30;;;23.40;1.00;;;;;;5115294;28;20163;-75
2022/05/10 05:24:54;;;;;;;12.43;8.80;;;23.50;1.00;;;;;;5115568;28;20195;-74
2022/05/10 05:27:20;;;;;;;12.25;8.52;;;23.50;99.90;;;;;;5115052;28;20176;-74
2022/05/10 05:29:47;;;;;;;11.60;8.43;;;23.10;1.00;;;;;;5114430;28;20163;-74
2022/05/10 05:32:13;;;;;;;9.73;8.27;;;23.20;1.00;;;;;;5115146;28;20214;-75
2022/05/10 05:34:39;;;;;;;15.30;8.85;;;23.10;1.00;;;;;;5115123;28;20232;-73
2022/05/10 05:39:49;;;;;;;11.73;8.23;;;22.80;1.00;;;;;;5114794;28;20229;-73
2022/05/10 05:42:15;;;;;;;12.30;8.13;;;22.50;1.00;;;;;;5114669;28;20167;-74
2022/05/10 05:44:41;;;;;;;16.20;9.73;;;22.30;1.00;;;;;;5114795;28;20261;-75
2022/05/10 05:47:07;;;;;;;14.95;8.73;;;22.50;1.00;;;;;;5113762;28;20172;-76
2022/05/10 05:49:32;;;;;;;12.38;8.63;;;22.90;1.00;;;;;;5114190;28;20247;-76
2022/05/10 05:52:00;;;;;;;9.98;8.18;;;23.10;1.00;;;;;;5114790;28;20167;-75
2022/05/10 05:54:26;;;;;;;11.57;8.70;;;23.30;1.00;;;;;;5114749;28;20237;-75
2022/05/10 05:57:05;;;;;;;11.48;7.75;;;23.40;1.00;;;;;;5113725;28;20175;-75
2022/05/10 05:59:32;;;;;;;15.38;8.77;;;23.00;1.00;;;;;;5113804;28;20226;-75
2022/05/10 06:01:58;;;;;;;9.70;7.03;;;22.90;1.00;;;;;;5095302;28;20535;-76
2022/05/10 06:04:24;;;;;;;11.68;8.00;;;22.90;1.00;;;;;;5114149;28;20175;-75
2022/05/10 06:06:50;;;;;;;10.48;7.13;;;22.70;1.00;;;;;;5113121;28;20186;-74
2022/05/10 06:09:19;;;;;;;10.00;7.60;;;22.50;1.00;;;;;;5114097;28;20630;-73
2022/05/10 06:11:45;;;;;;;11.00;7.47;;;22.40;1.00;;;;;;5113783;28;20602;-75
2022/05/10 06:14:11;;;;;;;13.05;7.95;;;22.20;1.00;;;;;;5112481;27;20265;-76
2022/05/10 06:16:39;;;;;;;15.57;9.10;;;22.00;1.00;;;;;;5115042;27;20596;-74
2022/05/10 06:19:05;;;;;;;11.60;7.68;;;21.80;1.00;;;;;;5110652;28;20198;-76
2022/05/10 06:21:32;;;;;;;12.18;7.43;;;21.50;99.90;;;;;;5112400;28;20175;-77
2022/05/10 06:23:57;;;;;;;25.45;8.73;;;21.60;99.90;;;;;;5113132;28;20187;-77
2022/05/10 06:26:23;;;;;;;15.63;8.63;;;21.60;99.90;;;;;;5112891;28;20262;-75
2022/05/10 06:28:49;;;;;;;11.52;7.95;;;21.80;99.90;;;;;;5113894;28;20171;-75
2022/05/10 06:31:14;;;;;;;11.00;7.60;;;21.90;1.00;;;;;;5113152;28;20597;-75
2022/05/10 06:33:40;;;;;;;16.05;8.13;;;22.00;1.00;;;;;;5113146;28;20175;-75
2022/05/10 06:36:06;;;;;;;17.48;7.93;;;22.10;1.00;;;;;;5113206;28;20622;-74
2022/05/10 06:38:32;;;;;;;16.27;9.02;;;22.20;1.00;;;;;;5112734;28;20202;-76
2022/05/10 06:41:01;;;;;;;31.98;22.90;;;22.60;1.00;;;;;;5112282;28;20168;-75
2022/05/10 06:43:28;;;;;;;23.00;16.40;;;22.80;1.00;;;;;;5112496;28;20228;-75
2022/05/10 06:45:57;;;;;;;10.93;7.97;;;22.90;1.00;;;;;;5113184;28;20258;-75
2022/05/10 06:48:24;;;;;;;12.25;7.75;;;23.00;1.00;;;;;;5112121;28;20266;-77
2022/05/10 06:50:50;;;;;;;9.82;7.28;;;23.00;1.00;;;;;;5111583;28;20183;-76
2022/05/10 06:53:16;;;;;;;11.43;7.18;;;23.00;1.00;;;;;;5097744;28;20217;-75
2022/05/10 06:55:46;;;;;;;11.27;6.70;;;23.00;1.00;;;;;;5109657;28;20187;-74
2022/05/10 06:58:11;;;;;;;11.07;6.60;;;22.80;1.00;;;;;;5108251;28;20614;-75
2022/05/10 07:00:40;;;;;;;10.20;6.82;;;22.80;1.00;;;;;;5108534;28;20261;-74
2022/05/10 07:03:11;;;;;;;11.43;6.80;;;22.70;1.00;;;;;;5092634;28;20175;-74
2022/05/10 07:05:39;;;;;;;9.70;6.20;;;22.60;1.00;;;;;;5105291;28;20187;-75
2022/05/10 07:08:05;;;;;;;7.93;6.63;;;22.60;1.00;;;;;;5107180;28;20194;-74
2022/05/10 07:10:31;;;;;;;7.68;6.80;;;22.60;1.00;;;;;;5102696;28;20258;-78
2022/05/10 07:12:58;;;;;;;12.80;7.30;;;22.60;1.00;;;;;;5086829;28;20175;-75
2022/05/10 07:15:24;;;;;;;10.63;6.88;;;22.60;1.00;;;;;;5105916;28;20182;-75
2022/05/10 07:17:50;;;;;;;11.00;7.18;;;22.60;1.00;;;;;;5103793;28;20179;-75
2022/05/10 07:20:17;;;;;;;12.30;7.20;;;22.60;1.00;;;;;;5108934;28;20242;-74
2022/05/10 07:22:43;;;;;;;7.15;6.47;;;22.60;1.00;;;;;;5103773;28;20564;-74
2022/05/10 07:25:15;;;;;;;8.25;6.80;;;22.70;1.00;;;;;;5107123;28;20183;-74
2022/05/10 07:27:41;;;;;;;8.90;7.03;;;22.60;1.00;;;;;;5106759;28;20183;-75
2022/05/10 07:30:09;;;;;;;8.05;6.13;;;22.90;1.00;;;;;;5094562;28;20187;-79
2022/05/10 07:32:35;;;;;;;13.88;7.05;;;22.90;1.00;;;;;;5103334;27;20183;-74
2022/05/10 07:35:02;;;;;;;6.85;6.15;;;22.80;1.00;;;;;;5105159;28;20183;-74
2022/05/10 07:37:28;;;;;;;7.15;6.20;;;23.00;1.00;;;;;;5098206;28;20630;-76
2022/05/10 07:39:54;;;;;;;7.57;6.20;;;22.90;1.00;;;;;;5111203;28;20246;-75
2022/05/10 07:42:19;;;;;;;10.32;6.40;;;22.80;1.00;;;;;;5100950;28;20659;-74
2022/05/10 07:44:45;;;;;;;8.43;6.32;;;22.70;1.00;;;;;;5111126;28;20171;-75
2022/05/10 07:47:11;;;;;;;8.68;6.35;;;22.80;1.00;;;;;;5108155;28;20768;-76
2022/05/10 07:49:36;;;;;;;8.13;5.60;;;22.80;1.00;;;;;;5099949;28;20175;-75
2022/05/10 07:52:04;;;;;;;11.45;6.53;;;22.80;1.00;;;;;;5102660;28;20179;-75
2022/05/10 07:54:30;;;;;;;9.43;6.25;;;22.90;1.00;;;;;;5099689;28;20266;-76
2022/05/10 07:56:55;;;;;;;6.40;5.78;;;23.10;1.00;;;;;;5100905;28;20184;-74
2022/05/10 07:59:21;;;;;;;9.40;6.00;;;23.60;1.00;;;;;;5108258;28;20249;-77
2022/05/10 08:01:46;;;;;;;8.73;6.00;;;23.90;99.90;;;;;;5104760;28;20274;-78
2022/05/10 08:04:12;;;;;;;8.57;5.20;;;24.30;99.90;;;;;;5105112;28;20186;-77
2022/05/10 08:06:38;;;;;;;15.93;5.97;;;24.80;99.90;;;;;;5103312;28;20182;-75
2022/05/10 08:09:03;;;;;;;10.00;5.38;;;25.40;99.90;;;;;;5106057;28;20578;-76
2022/05/10 08:11:29;;;;;;;8.93;5.72;;;25.80;99.90;;;;;;5107198;28;20639;-77
2022/05/10 08:13:55;;;;;;;7.70;5.78;;;25.80;99.90;;;;;;5105527;28;20175;-77
2022/05/10 08:16:21;;;;;;;8.82;5.85;;;25.50;99.90;;;;;;5092510;28;20199;-75
2022/05/10 08:18:48;;;;;;;12.35;5.97;;;25.70;99.90;;;;;;5108553;28;20232;-76
2022/05/10 08:21:15;;;;;;;10.88;5.25;;;25.50;99.90;;;;;;5103284;28;20175;-79
2022/05/10 08:23:41;;;;;;;13.57;5.82;;;25.30;99.90;;;;;;5107164;28;20268;-76
2022/05/10 08:26:08;;;;;;;9.40;6.13;;;25.50;99.90;;;;;;5098851;28;20870;-75
2022/05/10 08:28:35;;;;;;;9.07;6.18;;;26.00;99.90;;;;;;5109617;28;20253;-74
2022/05/10 08:31:03;;;;;;;7.85;5.78;;;26.40;99.90;;;;;;5110678;28;20250;-77
2022/05/10 08:33:32;;;;;;;7.07;5.15;;;26.90;99.90;;;;;;5110771;28;20175;-74
2022/05/10 08:35:59;;;;;;;9.00;5.82;;;27.00;99.90;;;;;;5104664;28;20642;-76
2022/05/10 08:38:26;;;;;;;15.75;5.68;;;27.30;99.90;;;;;;5107812;28;20211;-76
2022/05/10 08:41:09;;;;;;;9.77;5.82;;;27.00;99.90;;;;;;5103715;28;20179;-77
2022/05/10 08:43:49;;;;;;;9.32;5.72;;;26.80;99.90;;;;;;5097640;28;20171;-76
2022/05/10 08:46:20;;;;;;;8.45;5.50;;;26.90;99.90;;;;;;5098663;28;20183;-77
2022/05/10 08:48:50;;;;;;;11.48;6.35;;;27.30;99.90;;;;;;5100825;28;20197;-75
2022/05/10 08:51:16;;;;;;;8.85;6.13;;;26.50;99.90;;;;;;5095267;28;20180;-77
2022/05/10 08:53:42;;;;;;;9.05;6.13;;;25.90;99.90;;;;;;5107959;28;20626;-75
2022/05/10 08:56:18;;;;;;;7.75;6.50;;;26.00;99.90;;;;;;5107390;28;20579;-76
2022/05/10 08:58:49;;;;;;;7.53;5.97;;;26.60;99.90;;;;;;5104511;28;20199;-76
2022/05/10 09:01:26;;;;;;;7.18;6.20;;;26.80;99.90;;;;;;5106480;28;20232;-78
2022/05/10 09:04:31;;;;;;;9.80;6.00;;;27.20;99.90;;;;;;5099108;28;20200;-77
2022/05/10 09:07:10;;;;;;;13.60;6.68;;;27.40;99.90;;;;;;5102240;28;20671;-77
2022/05/10 09:09:51;;;;;;;9.13;6.70;;;27.60;99.90;;;;;;5098498;28;20186;-80
2022/05/10 09:12:22;;;;;;;8.23;5.80;;;28.70;99.90;;;;;;5100213;28;20184;-80
2022/05/10 09:15:00;;;;;;;14.20;6.28;;;29.50;99.90;;;;;;5095243;28;20537;-79
2022/05/10 09:17:31;;;;;;;7.38;5.70;;;30.30;99.90;;;;;;5112185;28;20172;-80
2022/05/10 09:19:57;;;;;;;11.00;5.78;;;29.90;99.90;;;;;;5104930;28;20223;-79
2022/05/10 09:22:32;;;;;;;14.40;6.18;;;29.30;99.90;;;;;;5107624;28;20187;-80
2022/05/10 09:24:58;;;;;;;11.52;6.32;;;28.80;99.90;;;;;;5109469;28;20183;-82
2022/05/10 09:27:32;;;;;;;7.85;5.93;;;28.90;99.90;;;;;;5112888;28;20232;-81
2022/05/10 09:29:58;;;;;;;7.75;6.07;;;28.10;99.90;;;;;;5116665;28;20178;-79
2022/05/10 09:35:27;;;;;;;7.63;6.30;;;27.40;99.90;;;;;;5116361;28;20550;-80
2022/05/10 09:38:06;;;;;;;6.88;6.25;;;27.70;99.90;;;;;;5116404;28;20193;-78
2022/05/10 09:40:34;;;;;;;11.35;6.85;;;28.40;99.90;;;;;;5097412;28;20316;-79
2022/05/10 09:43:23;;;;;;;8.35;6.20;;;29.30;99.90;;;;;;5106211;28;20192;-78
2022/05/10 09:46:07;;;;;;;9.77;6.15;;;28.60;99.90;;;;;;5107808;28;20168;-81
2022/05/10 09:48:33;;;;;;;7.80;5.68;;;28.00;99.90;;;;;;5102683;28;20175;-77
2022/05/10 09:50:58;;;;;;;8.05;6.03;;;28.10;99.90;;;;;;5105754;28;20217;-83
2022/05/10 09:53:30;;;;;;;6.93;5.50;;;28.00;99.90;;;;;;5109279;28;20210;-78
2022/05/10 09:56:24;;;;;;;6.22;5.47;;;27.70;99.90;;;;;;5112372;28;20338;-81
2022/05/10 09:59:04;;;;;;;6.20;5.38;;;28.00;99.90;;;;;;5112085;28;20245;-82
2022/05/10 10:01:55;;;;;;;8.23;5.20;;;28.30;99.90;;;;;;5113480;28;20174;-82
2022/05/10 10:04:27;;;;;;;11.90;5.63;;;28.30;99.90;;;;;;5105160;28;20206;-80
2022/05/10 10:07:21;;;;;;;5.85;5.15;;;28.50;99.90;;;;;;5105894;28;20191;-80
2022/05/10 10:09:52;;;;;;;9.48;6.20;;;29.60;99.90;;;;;;5109457;28;20187;-83
2022/05/10 10:12:32;;;;;;;7.28;5.57;;;29.20;99.90;;;;;;5114185;28;20186;-82
2022/05/10 10:14:58;;;;;;;6.47;4.95;;;28.80;99.90;;;;;;5116702;28;20167;-84
2022/05/10 10:17:37;;;;;;;9.02;5.00;;;29.10;99.90;;;;;;5108530;28;20199;-81
2022/05/10 10:20:30;;;;;;;10.07;5.88;;;29.50;99.90;;;;;;5095976;28;20666;-81
2022/05/10 10:23:00;;;;;;;13.88;5.18;;;29.40;99.90;;;;;;5101486;28;20245;-81
2022/05/10 10:25:25;;;;;;;8.45;5.00;;;29.50;99.90;;;;;;5113281;28;20543;-82
2022/05/10 10:28:17;;;;;;;10.88;4.68;;;29.60;99.90;;;;;;5109507;28;20183;-82
2022/05/10 10:31:13;;;;;;;13.90;5.05;;;29.20;99.90;;;;;;5088226;28;20183;-81
2022/05/10 10:33:45;;;;;;;6.85;4.55;;;29.00;99.90;;;;;;5114103;28;20202;-82
2022/05/10 10:36:50;;;;;;;7.35;5.05;;;28.30;99.90;;;;;;5114343;28;20167;-82
2022/05/10 10:39:29;;;;;;;13.07;5.13;;;28.20;99.90;;;;;;5121224;28;20195;-82
2022/05/10 10:42:12;;;;;;;6.72;4.82;;;28.40;99.90;;;;;;5100804;28;20163;-80
2022/05/10 10:44:45;;;;;;;9.02;5.00;;;28.70;99.90;;;;;;5108661;28;20171;-79
2022/05/10 10:47:36;;;;;;;8.70;5.53;;;29.00;99.90;;;;;;5118211;28;20178;-84
2022/05/10 10:50:26;;;;;;;12.57;5.03;;;28.80;99.90;;;;;;5102535;28;20224;-82
2022/05/10 10:52:54;;;;;;;8.23;5.05;;;29.50;99.90;;;;;;5121250;28;20225;-81
2022/05/10 10:55:21;;;;;;;7.15;4.90;;;29.20;99.90;;;;;;5122042;28;20167;-83
2022/05/10 10:58:12;;;;;;;10.18;5.05;;;29.90;99.90;;;;;;5117650;28;20179;-81
2022/05/10 11:01:05;;;;;;;7.43;5.25;;;29.30;99.90;;;;;;5097226;28;20674;-83
2022/05/10 11:03:38;;;;;;;8.45;5.32;;;28.70;99.90;;;;;;5100326;28;20165;-82
2022/05/10 11:06:17;;;;;;;5.65;5.13;;;28.40;99.90;;;;;;5099547;28;20172;-85
2022/05/10 11:09:08;;;;;;;10.57;5.40;;;28.70;99.90;;;;;;5085881;28;20194;-82
2022/05/10 11:11:53;;;;;;;9.20;5.45;;;28.60;99.90;;;;;;5095473;28;20164;-84
2022/05/10 11:14:37;;;;;;;8.07;5.38;;;28.50;99.90;;;;;;5097799;28;20175;-83
2022/05/10 11:17:12;;;;;;;11.80;5.65;;;28.80;99.90;;;;;;5094764;28;20207;-82
2022/05/10 11:19:55;;;;;;;9.32;4.68;;;28.60;99.90;;;;;;5089690;28;20221;-84
2022/05/10 11:22:33;;;;;;;9.27;5.80;;;28.40;99.90;;;;;;5094158;28;20241;-81
2022/05/10 11:25:35;;;;;;;7.78;5.10;;;28.10;99.90;;;;;;5094525;28;20210;-80
2022/05/10 11:28:26;;;;;;;6.15;4.75;;;28.40;99.90;;;;;;5078345;28;20213;-80
2022/05/10 11:31:01;;;;;;;6.75;5.05;;;28.60;99.90;;;;;;5091191;28;20258;-84
2022/05/10 11:34:04;;;;;;;7.25;5.07;;;28.30;99.90;;;;;;5093643;28;20614;-84
2022/05/10 11:36:38;;;;;;;8.82;5.05;;;28.70;99.90;;;;;;5097022;28;20183;-83
2022/05/10 11:39:06;;;;;;;7.47;5.80;;;28.50;99.90;;;;;;5095675;28;20298;-83
2022/05/10 11:42:13;;;;;;;12.20;5.28;;;28.20;99.90;;;;;;5094097;28;20172;-80
2022/05/10 11:45:08;;;;;;;6.97;5.40;;;28.10;99.90;;;;;;5084384;28;20187;-79
2022/05/10 11:47:49;;;;;;;15.55;5.75;;;27.80;99.90;;;;;;5075236;28;20195;-81
2022/05/10 11:50:26;;;;;;;10.40;5.43;;;27.70;99.90;;;;;;5091323;28;20175;-82
2022/05/10 11:53:24;;;;;;;13.77;5.80;;;28.00;99.90;;;;;;5093728;28;20164;-80
2022/05/10 11:55:55;;;;;;;7.70;5.93;;;28.60;99.90;;;;;;5066629;28;20904;-78
2022/05/10 11:58:23;;;;;;;8.95;5.47;;;28.10;99.90;;;;;;5095964;28;20252;-79
2022/05/10 12:00:52;;;;;;;6.30;5.47;;;27.80;99.90;;;;;;5118420;28;20221;-80
2022/05/10 12:03:36;;;;;;;12.65;6.32;;;27.60;99.90;;;;;;5123848;28;20328;-78
2022/05/10 12:06:21;;;;;;;8.73;5.90;;;27.40;99.90;;;;;;5109437;28;20261;-77
2022/05/10 12:08:46;;;;;;;8.50;6.05;;;27.60;99.90;;;;;;5105095;28;20209;-78
2022/05/10 12:11:34;;;;;;;13.77;5.72;;;27.80;99.90;;;;;;5109293;28;20211;-77
2022/05/10 12:22:18;;;;;;;8.98;5.65;;;28.00;99.90;;;;;;5100545;28;20202;-78
2022/05/10 12:24:48;;;;;;;8.45;5.97;;;28.50;99.90;;;;;;5110382;28;20194;-75
2022/05/10 12:27:15;;;;;;;7.35;5.07;;;28.40;99.90;;;;;;5111521;28;20171;-77
2022/05/10 12:29:40;;;;;;;9.25;5.68;;;28.10;99.90;;;;;;5086745;28;20579;-75
2022/05/10 12:32:09;;;;;;;10.80;5.88;;;28.10;99.90;;;;;;5092544;28;20179;-74
2022/05/10 12:34:58;;;;;;;6.22;5.63;;;27.60;99.90;;;;;;5110238;28;20259;-75
2022/05/10 12:37:30;;;;;;;8.70;5.85;;;27.70;99.90;;;;;;5110687;28;20168;-75
2022/05/10 12:40:02;;;;;;;7.28;5.70;;;27.80;99.90;;;;;;5110239;28;20199;-74
2022/05/10 12:42:52;;;;;;;6.18;5.68;;;27.80;99.90;;;;;;5103433;28;20250;-76
2022/05/10 12:45:18;;;;;;;6.93;5.65;;;27.60;99.90;;;;;;5106240;28;20177;-76
2022/05/10 12:48:05;;;;;;;7.10;6.50;;;27.70;99.90;;;;;;5111167;28;20254;-75
2022/05/10 12:50:52;;;;;;;9.55;5.20;;;27.00;99.90;;;;;;5103148;28;20175;-76
2022/05/10 12:53:51;;;;;;;6.82;6.07;;;27.20;99.90;;;;;;5097486;28;21160;-77
2022/05/10 12:56:25;;;;;;;15.90;6.47;;;27.70;99.90;;;;;;5107931;28;20674;-76
2022/05/10 12:59:10;;;;;;;12.55;8.40;;;27.90;99.90;;;;;;5107692;28;20199;-75
2022/05/10 13:01:38;;;;;;;11.27;6.95;;;27.90;99.90;;;;;;5102865;28;20521;-77
2022/05/10 13:04:12;;;;;;;8.63;6.15;;;27.90;99.90;;;;;;5095070;28;20240;-75
2022/05/10 13:07:00;;;;;;;10.57;6.55;;;28.00;99.90;;;;;;5106637;28;20254;-76
2022/05/10 13:09:33;;;;;;;10.05;7.07;;;27.60;99.90;;;;;;5106512;28;20184;-76
2022/05/10 13:12:08;;;;;;;10.32;6.97;;;27.40;99.90;;;;;;5114753;28;20232;-75
2022/05/10 13:14:46;;;;;;;7.50;6.90;;;27.60;99.90;;;;;;5123074;28;20167;-78
2022/05/10 13:17:19;;;;;;;8.77;7.25;;;27.40;99.90;;;;;;5111552;28;20692;-75
2022/05/10 13:19:45;;;;;;;10.07;6.53;;;27.40;99.90;;;;;;5108013;28;20218;-73
2022/05/10 13:22:18;;;;;;;10.70;6.68;;;27.40;99.90;;;;;;5106144;28;20199;-74
2022/05/10 13:24:46;;;;;;;17.65;6.90;;;27.50;99.90;;;;;;5111301;28;20183;-75
2022/05/10 13:27:43;;;;;;;7.10;5.82;;;27.40;99.90;;;;;;5103546;28;20171;-75
2022/05/10 13:30:20;;;;;;;7.15;6.40;;;27.30;99.90;;;;;;5025941;28;20217;-75
2022/05/10 13:32:51;;;;;;;7.53;6.63;;;27.10;99.90;;;;;;5031702;28;20189;-74